createdAt,value
2023-03-23T15:59:25.154Z,15.90
2023-03-23T16:01:51.543Z,15.90
2023-03-23T16:04:18.042Z,15.90
2023-03-23T16:06:44.408Z,15.91
2023-03-23T16:09:10.752Z,15.90
2023-03-23T16:11:37.106Z,15.90
2023-03-23T16:14:03.626Z,15.91
2023-03-23T16:16:30.142Z,15.90
2023-03-23T16:18:57.253Z,15.90
2023-03-23T16:21:23.653Z,15.90
2023-03-23T16:23:50.087Z,15.89
2023-03-23T16:26:16.724Z,15.88
2023-03-23T16:28:43.371Z,15.89
2023-03-23T16:31:09.760Z,15.89
2023-03-23T16:33:36.191Z,15.89
2023-03-23T16:36:03.074Z,15.89
2023-03-23T16:38:29.565Z,15.89
2023-03-23T16:40:55.941Z,15.89
2023-03-23T16:43:22.245Z,15.88
2023-03-23T16:45:49.773Z,15.89
2023-03-23T16:48:16.487Z,15.88
2023-03-23T16:50:43.644Z,15.89
2023-03-23T16:53:10.029Z,15.89
2023-03-23T16:55:36.392Z,15.90
2023-03-23T17:00:32.030Z,15.91
2023-03-23T17:02:58.891Z,15.92
2023-03-23T17:05:25.400Z,15.91
2023-03-23T17:07:51.973Z,15.90
2023-03-23T17:10:18.314Z,15.90
2023-03-23T17:12:44.654Z,15.89
2023-03-23T17:15:10.954Z,15.91
2023-03-23T17:17:37.743Z,15.94
2023-03-23T17:20:04.201Z,15.93
2023-03-23T17:22:31.048Z,15.93
2023-03-23T17:24:57.460Z,15.92
2023-03-23T17:27:23.757Z,15.92
2023-03-23T17:29:50.047Z,15.93
2023-03-23T17:32:16.664Z,15.94
2023-03-23T17:34:43.046Z,15.94
2023-03-23T17:37:09.525Z,15.94
2023-03-23T17:39:42.329Z,15.95
2023-03-23T17:42:10.133Z,15.93
2023-03-23T17:44:36.687Z,15.93
2023-03-23T17:47:03.432Z,15.94
2023-03-23T17:49:29.944Z,15.95
2023-03-23T17:51:56.315Z,15.98
2023-03-23T17:54:22.878Z,15.94
2023-03-23T17:56:49.317Z,15.87
2023-03-23T17:59:15.718Z,15.81
2023-03-23T18:01:42.971Z,15.82
2023-03-23T18:04:09.270Z,15.84
2023-03-23T18:06:35.649Z,15.89
2023-03-23T18:09:01.974Z,15.95
2023-03-23T18:11:28.294Z,16.01
2023-03-23T18:13:54.713Z,16.10
2023-03-23T18:16:21.101Z,16.15
2023-03-23T18:18:47.670Z,16.23
2023-03-23T18:21:14.052Z,16.32
2023-03-23T18:23:49.299Z,16.39
2023-03-23T18:26:23.555Z,16.49
2023-03-23T18:28:49.893Z,16.56
2023-03-23T18:31:16.269Z,16.61
2023-03-23T18:33:42.678Z,16.65
2023-03-23T18:36:09.179Z,16.72
2023-03-23T18:38:36.992Z,16.75
2023-03-23T18:41:05.145Z,16.82
2023-03-23T18:43:31.503Z,16.84
2023-03-23T18:45:57.891Z,16.88
2023-03-23T18:48:24.725Z,16.89
2023-03-23T18:50:51.045Z,16.92
2023-03-23T18:53:17.446Z,16.95
2023-03-23T18:55:44.085Z,16.98
2023-03-23T18:58:11.127Z,17.00
2023-03-23T19:00:37.469Z,17.02
2023-03-23T19:03:04.022Z,17.03
2023-03-23T19:05:30.475Z,17.07
2023-03-23T19:07:57.016Z,17.10
2023-03-23T19:10:23.445Z,17.12
2023-03-23T19:12:52.005Z,17.16
2023-03-23T19:15:18.484Z,17.19
2023-03-23T19:17:44.862Z,17.22
2023-03-23T19:20:14.657Z,17.25
2023-03-23T19:22:45.960Z,17.28
2023-03-23T19:25:12.366Z,17.32
2023-03-23T19:28:03.676Z,17.34
2023-03-23T19:30:25.782Z,17.35
2023-03-23T19:32:52.284Z,17.39
2023-03-23T19:35:18.750Z,17.42
2023-03-23T19:37:45.265Z,17.44
2023-03-23T19:40:31.069Z,17.48
2023-03-23T19:42:58.957Z,17.51
2023-03-23T19:45:25.875Z,17.54
2023-03-23T19:47:52.279Z,17.57
2023-03-23T19:50:18.711Z,17.60
2023-03-23T19:52:45.221Z,17.64
2023-03-23T19:55:11.617Z,17.66
2023-03-23T19:57:38.136Z,17.70
2023-03-23T20:00:05.078Z,17.72
2023-03-23T20:02:32.218Z,17.74
2023-03-23T20:04:59.663Z,17.78
2023-03-23T20:07:26.982Z,17.82
2023-03-23T20:09:53.559Z,17.84
2023-03-23T20:12:19.988Z,17.88
2023-03-23T20:14:46.622Z,17.91
2023-03-23T20:17:13.052Z,17.95
2023-03-23T20:19:40.287Z,17.97
2023-03-23T20:22:07.518Z,17.98
2023-03-23T20:24:33.964Z,18.02
2023-03-23T20:27:00.896Z,18.03
2023-03-23T20:29:31.373Z,18.08
2023-03-23T20:31:57.886Z,18.11
2023-03-23T20:34:24.594Z,18.13
2023-03-23T20:36:50.970Z,18.16
2023-03-23T20:39:17.621Z,18.19
2023-03-23T20:41:44.076Z,18.22
2023-03-23T20:44:10.461Z,18.26
2023-03-23T20:46:36.910Z,18.30
2023-03-23T20:49:03.401Z,18.32
2023-03-23T20:51:29.774Z,18.34
2023-03-23T20:53:56.629Z,18.36
2023-03-23T20:56:23.124Z,18.35
2023-03-23T20:58:49.520Z,18.38
2023-03-23T21:01:15.995Z,18.42
2023-03-23T21:03:42.577Z,18.44
2023-03-23T21:06:09.144Z,18.47
2023-03-23T21:08:35.877Z,18.48
2023-03-23T21:11:02.264Z,18.52
2023-03-23T21:13:29.252Z,18.57
2023-03-23T21:15:56.131Z,18.57
2023-03-23T21:18:23.212Z,18.59
2023-03-23T21:20:49.584Z,18.61
2023-03-23T21:23:16.299Z,18.64
2023-03-23T21:25:42.910Z,18.69
2023-03-23T21:28:09.469Z,18.71
2023-03-23T21:30:35.876Z,18.73
2023-03-23T21:33:02.282Z,18.75
2023-03-23T21:35:28.798Z,18.78
2023-03-23T21:37:55.208Z,18.79
2023-03-23T21:40:21.641Z,18.78
2023-03-23T21:42:48.031Z,18.77
2023-03-23T21:45:14.417Z,18.77
2023-03-23T21:47:41.225Z,18.74
2023-03-23T21:50:08.037Z,18.74
2023-03-23T21:52:34.386Z,18.75
2023-03-23T21:55:00.796Z,18.75
2023-03-23T21:57:27.857Z,18.76
2023-03-23T21:59:54.218Z,18.75
2023-03-23T22:02:20.722Z,18.73
2023-03-23T22:04:47.540Z,18.74
2023-03-23T22:07:13.866Z,18.75
2023-03-23T22:09:40.220Z,18.75
2023-03-23T22:12:06.724Z,18.75
2023-03-23T22:14:33.088Z,18.73
2023-03-23T22:16:59.416Z,18.76
2023-03-23T22:19:26.277Z,18.78
2023-03-23T22:21:53.010Z,18.79
2023-03-23T22:24:19.427Z,18.81
2023-03-23T22:26:45.913Z,18.81
2023-03-23T22:29:12.654Z,18.84
2023-03-23T22:31:39.584Z,18.83
2023-03-23T22:34:06.166Z,18.84
2023-03-23T22:36:32.729Z,18.85
2023-03-23T22:38:59.056Z,18.85
2023-03-23T22:41:25.527Z,18.86
2023-03-23T22:43:51.879Z,18.87
2023-03-23T22:46:18.453Z,18.88
2023-03-23T22:48:44.875Z,18.89
2023-03-23T22:51:11.495Z,18.90
2023-03-23T22:53:38.404Z,18.90
2023-03-23T22:56:04.873Z,18.89
2023-03-23T22:58:31.573Z,18.87
2023-03-23T23:00:58.081Z,18.86
2023-03-23T23:03:24.971Z,18.83
2023-03-23T23:05:51.613Z,18.79
2023-03-23T23:08:18.385Z,18.77
2023-03-23T23:10:44.875Z,18.75
2023-03-23T23:13:11.382Z,18.72
2023-03-23T23:15:37.763Z,18.69
2023-03-23T23:18:05.178Z,18.67
2023-03-23T23:20:31.742Z,18.64
2023-03-23T23:22:58.122Z,18.63
2023-03-23T23:25:25.789Z,18.61
2023-03-23T23:27:52.206Z,18.57
2023-03-23T23:30:18.552Z,18.53
2023-03-23T23:32:44.941Z,18.52
2023-03-23T23:35:11.339Z,18.49
2023-03-23T23:37:37.937Z,18.47
2023-03-23T23:40:04.459Z,18.45
2023-03-23T23:42:30.826Z,18.43
2023-03-23T23:44:57.941Z,18.41
2023-03-23T23:47:24.368Z,18.42
2023-03-23T23:49:50.670Z,18.38
2023-03-23T23:52:17.319Z,18.36
2023-03-23T23:54:44.435Z,18.37
2023-03-23T23:57:11.338Z,18.34
2023-03-23T23:59:38.167Z,18.34
